Time;durP1;ratioP1;P1;durP2;ratioP2;P2;SDS_P1;SDS_P2;PMS_P1;PMS_P2;Temp;Humidity;BMP_temperature;BMP_pressure;BME280_temperature;BME280_humidity;BME280_pressure;Samples;Min_cycle;Max_cycle;Signal;HPM_P1;HPM_P2
2021/09/20 00:02:24;;;;;;;10.57;5.15;;;;;;;16.30;77.81;99543.31;4925782;29;20488;-83
2021/09/20 00:04:51;;;;;;;3.13;2.60;;;;;;;16.16;77.40;99547.94;4917975;29;20205;-83
2021/09/20 00:07:19;;;;;;;10.93;2.92;;;;;;;16.16;78.23;99549.75;4918757;29;20044;-83
2021/09/20 00:09:45;;;;;;;4.10;2.55;;;;;;;16.11;77.44;99558.03;4917170;29;20096;-86
2021/09/20 00:12:13;;;;;;;4.15;2.83;;;;;;;16.16;77.70;99557.63;4918912;29;20056;-85
2021/09/20 00:14:41;;;;;;;4.53;3.20;;;;;;;16.15;76.82;99564.69;4919130;29;20040;-85
2021/09/20 00:17:08;;;;;;;3.67;2.50;;;;;;;16.34;75.32;99566.59;4918650;29;20051;-85
2021/09/20 00:19:35;;;;;;;6.43;2.42;;;;;;;16.21;75.85;99563.34;4919144;29;20044;-85
2021/09/20 00:22:02;;;;;;;3.22;2.50;;;;;;;16.34;75.92;99569.22;4919297;29;20096;-85
2021/09/20 00:24:29;;;;;;;4.75;2.38;;;;;;;16.24;75.61;99565.69;4934019;29;20044;-85
2021/09/20 00:26:56;;;;;;;4.07;2.60;;;;;;;16.32;76.09;99565.06;4936654;29;20036;-85
2021/09/20 00:29:22;;;;;;;2.60;2.40;;;;;;;16.30;75.06;99561.72;4929040;29;20054;-82
2021/09/20 00:31:49;;;;;;;9.48;4.10;;;;;;;16.26;75.00;99555.91;4929807;29;20052;-84
2021/09/20 00:34:16;;;;;;;2.95;2.65;;;;;;;16.21;75.34;99558.91;4919957;29;20036;-83
2021/09/20 00:36:43;;;;;;;4.20;2.30;;;;;;;16.21;77.20;99558.91;4919518;29;20099;-84
2021/09/20 00:39:09;;;;;;;3.45;2.42;;;;;;;16.24;75.47;99563.94;4919307;29;20119;-85
2021/09/20 00:41:36;;;;;;;3.63;2.50;;;;;;;16.22;75.80;99550.06;4919220;29;20048;-85
2021/09/20 00:44:03;;;;;;;2.90;2.13;;;;;;;16.06;76.48;99549.69;4918431;29;20062;-83
2021/09/20 00:46:30;;;;;;;3.05;2.30;;;;;;;16.19;76.21;99552.09;4917980;29;20060;-83
2021/09/20 00:48:57;;;;;;;2.47;1.90;;;;;;;16.23;74.95;99556.16;4917731;29;20071;-83
2021/09/20 00:51:23;;;;;;;4.05;3.30;;;;;;;16.03;75.98;99549.94;4917877;29;20052;-82
2021/09/20 00:53:50;;;;;;;2.42;2.08;;;;;;;16.03;76.43;99547.28;4917161;29;20063;-83
2021/09/20 00:56:17;;;;;;;2.83;2.30;;;;;;;16.03;76.78;99551.72;4917672;29;20044;-82
2021/09/20 00:58:45;;;;;;;4.70;2.13;;;;;;;16.02;77.09;99552.69;4917616;29;20040;-82
2021/09/20 01:01:12;;;;;;;3.13;2.22;;;;;;;16.01;77.08;99551.84;4917754;29;20099;-85
2021/09/20 01:03:39;;;;;;;2.08;1.88;;;;;;;16.14;76.77;99552.50;4917824;29;20055;-85
2021/09/20 01:06:06;;;;;;;6.43;2.53;;;;;;;16.01;76.52;99556.28;4918062;29;20040;-85
2021/09/20 01:08:33;;;;;;;3.53;2.08;;;;;;;16.00;76.45;99555.47;4918462;29;20059;-86
2021/09/20 01:11:00;;;;;;;3.17;2.33;;;;;;;16.04;76.52;99556.03;4918496;29;20048;-85
2021/09/20 01:13:27;;;;;;;5.30;2.47;;;;;;;16.02;76.26;99560.56;4917070;29;20126;-85
2021/09/20 01:15:54;;;;;;;3.33;2.63;;;;;;;16.07;75.39;99559.22;4917173;29;20116;-85
2021/09/20 01:18:21;;;;;;;2.92;2.00;;;;;;;16.02;75.53;99564.03;4899217;29;20052;-85
2021/09/20 01:20:48;;;;;;;2.08;1.65;;;;;;;15.98;74.63;99568.72;4883381;29;20055;-86
2021/09/20 01:23:17;;;;;;;2.05;1.55;;;;;;;15.98;76.91;99570.53;4918099;29;20059;-85
2021/09/20 01:25:44;;;;;;;5.40;2.00;;;;;;;15.96;77.11;99569.81;4917412;29;20500;-86
2021/09/20 01:28:11;;;;;;;2.65;1.95;;;;;;;15.92;77.35;99555.25;4917575;29;20050;-85
2021/09/20 01:30:38;;;;;;;1.60;1.50;;;;;;;16.09;74.04;99553.88;4917351;29;20044;-85
2021/09/20 01:33:05;;;;;;;1.92;1.30;;;;;;;16.02;71.58;99556.16;4917743;29;20044;-85
2021/09/20 01:35:31;;;;;;;2.47;2.05;;;;;;;16.08;68.74;99550.38;4917503;29;20040;-84
2021/09/20 01:37:58;;;;;;;1.30;1.20;;;;;;;16.32;68.79;99554.53;4917402;29;20653;-86
2021/09/20 01:40:25;;;;;;;1.15;1.05;;;;;;;16.21;68.26;99556.28;4916269;29;20115;-85
2021/09/20 01:42:52;;;;;;;1.13;1.02;;;;;;;16.04;68.52;99548.16;4916401;29;20052;-86
2021/09/20 01:45:19;;;;;;;2.03;1.20;;;;;;;15.94;71.15;99545.47;4917835;29;20043;-86
2021/09/20 01:47:46;;;;;;;1.10;1.00;;;;;;;15.83;70.78;99556.88;4917526;29;20055;-85
2021/09/20 01:50:14;;;;;;;1.48;1.02;;;;;;;15.90;69.22;99544.88;4917545;29;20054;-85
2021/09/20 01:52:42;;;;;;;1.00;1.00;;;;;;;16.19;69.71;99545.06;4917555;29;20048;-86
2021/09/20 01:55:09;;;;;;;1.60;1.15;;;;;;;16.02;68.38;99548.25;4917049;29;20056;-85
2021/09/20 01:57:36;;;;;;;0.85;0.85;;;;;;;15.94;69.26;99540.19;4917882;29;20051;-86
2021/09/20 02:00:06;;;;;;;1.23;0.80;;;;;;;15.96;68.39;99539.09;4917464;29;20473;-85
2021/09/20 02:02:36;;;;;;;2.72;1.48;;;;;;;15.80;68.54;99538.72;4916286;29;20059;-84
2021/09/20 02:05:05;;;;;;;0.93;0.90;;;;;;;15.93;68.92;99542.00;4918412;29;20511;-85
2021/09/20 02:07:32;;;;;;;1.08;0.85;;;;;;;15.84;68.71;99541.94;4917241;29;20066;-86
2021/09/20 02:10:00;;;;;;;1.50;0.95;;;;;;;15.91;69.70;99541.28;4916691;29;20043;-85
2021/09/20 02:12:27;;;;;;;4.32;1.13;;;;;;;15.78;69.42;99550.31;4916895;29;20507;-84
2021/09/20 02:14:53;;;;;;;2.47;0.90;;;;;;;15.81;70.40;99552.69;4916963;29;20095;-85
2021/09/20 02:17:22;;;;;;;1.80;1.10;;;;;;;15.69;71.40;99552.72;4916524;29;20075;-86
2021/09/20 02:19:49;;;;;;;1.73;1.33;;;;;;;15.68;73.27;99551.06;4915675;29;20044;-85
2021/09/20 02:22:16;;;;;;;2.40;1.27;;;;;;;15.59;73.92;99553.56;4916679;29;20040;-86
2021/09/20 02:24:43;;;;;;;3.40;1.23;;;;;;;15.52;74.49;99545.38;4904597;29;20515;-86
2021/09/20 02:27:10;;;;;;;2.80;1.42;;;;;;;15.48;73.96;99546.56;4918149;29;20048;-86
2021/09/20 02:29:37;;;;;;;4.05;1.30;;;;;;;15.49;74.08;99537.72;4921251;29;20040;-86
2021/09/20 02:32:04;;;;;;;1.40;1.15;;;;;;;15.40;74.53;99541.13;4919170;29;20048;-86
2021/09/20 02:34:31;;;;;;;4.50;1.63;;;;;;;15.35;74.46;99543.28;4920303;29;20048;-85
2021/09/20 02:36:58;;;;;;;1.35;1.00;;;;;;;15.34;74.00;99541.59;4919362;29;20146;-85
2021/09/20 02:39:25;;;;;;;1.50;1.20;;;;;;;15.37;74.42;99541.34;4920081;29;20103;-85
2021/09/20 02:41:51;;;;;;;2.42;1.45;;;;;;;15.40;75.81;99541.13;4920074;29;20095;-85
2021/09/20 02:44:18;;;;;;;2.83;1.38;;;;;;;15.41;76.88;99546.25;4919724;29;20044;-85
2021/09/20 02:46:45;;;;;;;2.10;1.23;;;;;;;15.38;77.05;99550.91;4920199;29;20040;-86
2021/09/20 02:49:12;;;;;;;1.88;1.50;;;;;;;15.42;77.53;99554.97;4920059;29;20040;-85
2021/09/20 02:51:39;;;;;;;1.98;1.67;;;;;;;15.49;77.48;99556.13;4920198;29;20376;-86
2021/09/20 02:54:06;;;;;;;3.55;1.40;;;;;;;15.61;77.63;99557.75;4919829;29;20056;-86
2021/09/20 02:56:33;;;;;;;2.92;1.75;;;;;;;15.50;78.26;99552.56;4919787;29;20047;-87
2021/09/20 02:59:00;;;;;;;2.80;1.67;;;;;;;15.51;79.26;99546.34;4919525;29;20492;-84
2021/09/20 03:01:26;;;;;;;2.97;2.00;;;;;;;15.46;79.08;99551.97;4919794;29;20055;-85
2021/09/20 03:03:53;;;;;;;9.10;1.98;;;;;;;15.44;79.78;99547.78;4919677;29;20052;-84
2021/09/20 03:06:20;;;;;;;3.92;1.73;;;;;;;15.49;80.63;99556.13;4919279;29;20044;-84
2021/09/20 03:08:47;;;;;;;4.28;1.83;;;;;;;15.51;80.79;99550.75;4920194;29;20055;-86
2021/09/20 03:11:13;;;;;;;3.45;1.73;;;;;;;15.34;80.63;99559.97;4919588;29;20607;-87
2021/09/20 03:13:40;;;;;;;3.20;1.98;;;;;;;15.43;81.80;99560.06;4919978;29;20048;-86
2021/09/20 03:16:07;;;;;;;4.15;1.77;;;;;;;15.49;80.24;99556.13;4919868;29;20452;-85
2021/09/20 03:18:34;;;;;;;8.98;1.90;;;;;;;15.42;81.17;99553.16;4919895;29;20071;-85
2021/09/20 03:21:00;;;;;;;7.13;1.90;;;;;;;15.54;80.29;99553.94;4918190;29;20052;-85
2021/09/20 03:23:27;;;;;;;7.28;1.50;;;;;;;15.51;80.56;99551.59;4919735;29;20052;-87
2021/09/20 03:25:54;;;;;;;2.55;1.27;;;;;;;15.42;81.12;99549.69;4919647;29;20048;-87
2021/09/20 03:28:21;;;;;;;3.28;1.67;;;;;;;15.47;80.15;99552.78;4919347;29;20396;-86
2021/09/20 03:30:48;;;;;;;3.92;1.48;;;;;;;15.39;80.27;99557.81;4919727;29;20112;-86
2021/09/20 03:33:15;;;;;;;2.38;1.60;;;;;;;15.44;79.41;99559.09;4918967;29;20109;-86
2021/09/20 03:35:41;;;;;;;3.15;1.35;;;;;;;15.42;79.56;99565.47;4919763;29;20044;-87
2021/09/20 03:38:08;;;;;;;3.90;1.90;;;;;;;15.33;80.54;99566.19;4917621;29;20036;-85
2021/09/20 03:40:35;;;;;;;4.07;1.70;;;;;;;15.34;80.21;99563.47;4919693;29;20044;-86
2021/09/20 03:43:02;;;;;;;3.03;1.40;;;;;;;15.26;80.18;99570.28;4919030;29;20048;-86
2021/09/20 03:45:29;;;;;;;4.53;1.73;;;;;;;15.34;80.26;99567.84;4919139;29;20076;-85
2021/09/20 03:47:56;;;;;;;2.20;1.50;;;;;;;15.29;79.92;99563.00;4919496;29;20052;-86
2021/09/20 03:50:22;;;;;;;7.07;1.58;;;;;;;15.34;79.57;99568.72;4917092;29;20488;-86
2021/09/20 03:52:49;;;;;;;3.05;1.67;;;;;;;15.36;79.24;99565.97;4919143;29;20040;-85
2021/09/20 03:55:16;;;;;;;6.05;2.35;;;;;;;15.29;78.35;99565.63;4899930;29;20059;-85
2021/09/20 03:57:43;;;;;;;3.10;1.50;;;;;;;15.33;78.60;99563.56;4918980;29;20044;-85
2021/09/20 04:00:11;;;;;;;3.20;1.70;;;;;;;15.31;77.43;99568.94;4918520;29;20523;-85
2021/09/20 04:02:38;;;;;;;5.18;1.80;;;;;;;15.19;77.30;99565.53;4919255;29;20040;-86
2021/09/20 04:05:06;;;;;;;1.45;1.10;;;;;;;15.32;77.29;99564.53;4918736;29;20044;-86
2021/09/20 04:07:33;;;;;;;3.95;1.50;;;;;;;15.16;77.42;99565.75;4918813;29;20056;-87
2021/09/20 04:10:01;;;;;;;2.97;1.17;;;;;;;15.25;77.21;99563.38;4918608;29;20067;-86
2021/09/20 04:12:28;;;;;;;5.75;2.03;;;;;;;15.17;77.52;99564.78;4918625;29;20052;-85
2021/09/20 04:14:55;;;;;;;8.30;2.15;;;;;;;15.29;77.99;99567.41;4918783;29;20052;-86
2021/09/20 04:17:21;;;;;;;2.47;1.10;;;;;;;15.23;78.57;99570.50;4918849;29;20047;-86
2021/09/20 04:19:48;;;;;;;3.40;1.50;;;;;;;15.22;78.23;99568.84;4918446;29;20047;-86
2021/09/20 04:22:15;;;;;;;4.55;1.30;;;;;;;15.19;78.19;99568.16;4917290;29;20055;-86
2021/09/20 04:24:44;;;;;;;5.43;1.52;;;;;;;15.16;77.51;99573.63;4918930;29;20044;-85
2021/09/20 04:27:12;;;;;;;2.50;1.10;;;;;;;15.18;76.89;99574.34;4923191;29;20376;-90
2021/09/20 04:29:38;;;;;;;1.35;1.02;;;;;;;15.25;75.84;99571.25;4935160;29;20052;-91
2021/09/20 04:32:05;;;;;;;3.33;1.08;;;;;;;15.18;76.15;99570.91;4930709;29;20044;-86
2021/09/20 04:34:32;;;;;;;1.48;1.00;;;;;;;15.15;76.18;99577.22;4916568;29;20040;-88
2021/09/20 04:36:59;;;;;;;15.00;2.67;;;;;;;15.16;76.11;99576.25;4919530;29;20050;-90
2021/09/20 04:39:26;;;;;;;11.32;2.80;;;;;;;15.09;74.55;99582.97;4909839;29;20048;-93
2021/09/20 04:41:53;;;;;;;5.00;1.40;;;;;;;15.13;73.01;99586.19;4909807;29;20450;-86
2021/09/20 04:44:20;;;;;;;4.45;1.38;;;;;;;15.01;72.39;99585.34;4916943;29;20046;-92
2021/09/20 04:46:48;;;;;;;4.97;1.60;;;;;;;14.93;71.96;99598.25;4916030;29;20040;-90
2021/09/20 04:49:15;;;;;;;2.47;1.17;;;;;;;14.82;73.85;99604.34;4929621;29;20048;-93
2021/09/20 04:51:42;;;;;;;3.80;1.77;;;;;;;14.88;71.82;99598.59;4936168;29;20047;-88
2021/09/20 04:54:09;;;;;;;2.70;1.30;;;;;;;14.89;72.15;99599.44;4926853;29;20100;-87
2021/09/20 04:56:36;;;;;;;2.22;1.92;;;;;;;14.83;72.83;99605.16;4915493;29;20480;-85
2021/09/20 04:59:02;;;;;;;6.07;1.23;;;;;;;14.79;73.13;99606.34;4916978;29;20103;-85
2021/09/20 05:01:29;;;;;;;5.22;1.10;;;;;;;14.74;72.45;99617.19;4913556;29;20040;-85
2021/09/20 05:03:56;;;;;;;3.20;2.35;;;;;;;14.72;72.23;99618.28;4910818;29;20068;-81
2021/09/20 05:06:23;;;;;;;3.25;1.20;;;;;;;14.76;71.75;99617.09;4926844;23;20024;-96
2021/09/20 05:08:50;;;;;;;5.00;1.30;;;;;;;14.66;75.52;99625.66;4902771;29;20040;-95
2021/09/20 05:11:17;;;;;;;14.77;2.75;;;;;;;14.84;77.22;99627.81;4892386;29;20036;-96
2021/09/20 05:13:43;;;;;;;8.55;2.53;;;;;;;14.94;76.79;99636.66;4887141;29;20052;-96
2021/09/20 05:16:10;;;;;;;9.55;2.47;;;;;;;14.92;76.14;99636.78;4894050;29;20076;-96
2021/09/20 05:18:37;;;;;;;8.43;1.80;;;;;;;14.80;74.89;99632.47;4895964;29;20064;-90
2021/09/20 05:21:04;;;;;;;6.28;1.58;;;;;;;15.07;73.97;99634.72;4889923;29;20056;-91
2021/09/20 05:23:31;;;;;;;4.57;1.10;;;;;;;14.98;72.90;99635.47;4895692;29;20492;-93
2021/09/20 05:25:57;;;;;;;4.50;1.00;;;;;;;15.11;72.46;99646.66;4893762;29;20055;-93
2021/09/20 05:28:24;;;;;;;3.30;1.13;;;;;;;15.18;72.06;99639.16;4889468;29;20065;-94
2021/09/20 05:30:51;;;;;;;3.83;1.08;;;;;;;15.32;71.51;99638.06;4895105;29;20045;-91
2021/09/20 05:33:18;;;;;;;2.50;1.40;;;;;;;15.64;70.43;99648.66;4890398;29;20051;-89
2021/09/20 05:35:45;;;;;;;4.63;1.08;;;;;;;15.61;70.31;99648.88;4895791;29;20072;-90
2021/09/20 05:38:14;;;;;;;2.85;1.13;;;;;;;15.84;69.64;99653.13;4896042;29;20056;-87
2021/09/20 05:40:42;;;;;;;2.90;1.30;;;;;;;15.68;70.28;99644.81;4894433;29;20053;-88
2021/09/20 05:43:10;;;;;;;7.88;1.17;;;;;;;15.18;73.45;99647.03;4897010;29;20049;-87
2021/09/20 05:45:37;;;;;;;3.25;1.45;;;;;;;15.24;73.09;99648.34;4894998;29;20108;-88
2021/09/20 05:48:04;;;;;;;6.15;1.23;;;;;;;15.28;72.78;99657.63;4894937;29;20077;-86
2021/09/20 05:50:31;;;;;;;4.78;1.20;;;;;;;15.46;71.93;99651.75;4895338;29;20100;-87
2021/09/20 05:52:58;;;;;;;2.88;0.90;;;;;;;15.51;72.23;99661.91;4894320;29;20048;-86
2021/09/20 05:55:25;;;;;;;1.60;1.13;;;;;;;15.49;72.39;99661.19;4895426;29;20097;-86
2021/09/20 05:57:51;;;;;;;3.40;1.17;;;;;;;15.49;72.70;99665.59;4895146;29;20040;-86
2021/09/20 06:00:19;;;;;;;2.67;1.05;;;;;;;15.57;72.90;99669.31;4894857;29;20137;-86
2021/09/20 06:02:46;;;;;;;6.32;1.27;;;;;;;15.59;72.98;99672.63;4892098;29;20381;-86
2021/09/20 06:05:14;;;;;;;6.32;1.33;;;;;;;15.69;72.46;99673.59;4899399;29;20690;-86
2021/09/20 06:07:42;;;;;;;4.82;1.60;;;;;;;15.69;72.86;99681.47;4899536;29;20052;-86
2021/09/20 06:10:10;;;;;;;6.97;1.33;;;;;;;15.85;72.01;99683.72;4899814;29;20049;-86
2021/09/20 06:12:37;;;;;;;4.03;1.20;;;;;;;15.91;71.34;99687.63;4900417;29;20048;-85
2021/09/20 06:15:06;;;;;;;2.95;1.95;;;;;;;15.89;70.60;99694.81;4900673;29;20045;-86
2021/09/20 06:17:33;;;;;;;4.57;4.07;;;;;;;15.95;70.94;99692.53;4900509;29;20412;-84
2021/09/20 06:19:59;;;;;;;2.85;1.58;;;;;;;16.13;70.84;99690.19;4900943;29;20427;-84
2021/09/20 06:22:26;;;;;;;8.68;1.80;;;;;;;16.21;71.35;99693.03;4900490;29;20048;-84
2021/09/20 06:24:55;;;;;;;2.78;1.85;;;;;;;16.13;70.49;99703.31;4901229;29;20389;-84
2021/09/20 06:27:22;;;;;;;4.13;1.30;;;;;;;16.19;68.10;99696.72;4900924;29;20048;-84
2021/09/20 06:29:49;;;;;;;4.20;1.50;;;;;;;16.17;67.36;99702.13;4899846;29;20445;-84
2021/09/20 06:32:16;;;;;;;3.30;1.20;;;;;;;16.22;67.67;99704.38;4900911;29;20428;-84
2021/09/20 06:34:42;;;;;;;3.17;0.90;;;;;;;16.26;67.68;99699.72;4900969;29;20441;-85
2021/09/20 06:37:10;;;;;;;0.90;0.90;;;;;;;16.23;67.73;99709.50;4900779;29;20053;-84
2021/09/20 06:39:37;;;;;;;4.35;1.55;;;;;;;16.34;67.11;99713.88;4900852;29;20052;-84
2021/09/20 06:42:06;;;;;;;4.30;2.33;;;;;;;16.34;66.42;99718.31;4900535;29;20052;-84
2021/09/20 06:44:35;;;;;;;4.10;2.03;;;;;;;16.38;66.30;99711.84;4899004;29;20044;-85
2021/09/20 06:47:02;;;;;;;3.20;1.75;;;;;;;16.46;66.39;99714.69;4900255;29;20552;-84
2021/09/20 06:49:29;;;;;;;2.60;1.50;;;;;;;16.47;65.82;99716.34;4900446;29;20425;-85
2021/09/20 06:51:56;;;;;;;3.65;1.40;;;;;;;16.68;65.31;99719.81;4900256;29;20448;-84
2021/09/20 06:54:23;;;;;;;1.15;1.08;;;;;;;16.61;64.83;99725.72;4900069;29;20044;-86
2021/09/20 06:56:50;;;;;;;1.95;0.95;;;;;;;16.58;64.73;99728.63;4900548;29;20049;-86
2021/09/20 06:59:17;;;;;;;3.55;1.10;;;;;;;16.74;65.10;99716.72;4900570;29;20108;-87
2021/09/20 07:01:43;;;;;;;1.90;1.02;;;;;;;16.79;65.11;99731.28;4900412;29;20048;-87
2021/09/20 07:04:10;;;;;;;1.90;1.00;;;;;;;16.84;64.83;99726.47;4899175;29;20040;-87
2021/09/20 07:06:37;;;;;;;1.42;0.77;;;;;;;16.87;65.09;99724.41;4899950;29;20069;-88
2021/09/20 07:09:04;;;;;;;1.27;1.05;;;;;;;16.90;64.64;99724.16;4900314;29;20500;-87
2021/09/20 07:11:31;;;;;;;1.65;0.90;;;;;;;17.02;64.36;99732.81;4900092;29;20044;-87
2021/09/20 07:13:58;;;;;;;1.80;0.90;;;;;;;16.89;64.31;99740.09;4899095;29;20072;-86
2021/09/20 07:16:31;;;;;;;1.38;0.77;;;;;;;16.76;64.86;99743.72;4899983;29;20044;-86
2021/09/20 07:18:58;;;;;;;0.93;0.82;;;;;;;17.00;64.60;99748.75;4899887;29;20408;-86
2021/09/20 07:21:30;;;;;;;3.58;1.00;;;;;;;17.08;64.25;99748.06;4898876;29;20045;-86
2021/09/20 07:24:01;;;;;;;;;;;;;;;17.12;64.28;99749.50;4900101;29;20428;-85
2021/09/20 07:26:30;;;;;;;6.38;1.00;;;;;;;17.21;63.58;99742.63;4900116;29;20383;-86
2021/09/20 07:28:57;;;;;;;6.47;1.20;;;;;;;17.10;64.41;99745.31;4899951;29;20051;-86
2021/09/20 07:31:27;;;;;;;1.55;1.00;;;;;;;17.32;63.09;99754.88;4899736;29;20044;-87
2021/09/20 07:33:54;;;;;;;0.90;0.90;;;;;;;17.22;63.92;99760.91;4899519;29;20059;-87
2021/09/20 07:36:21;;;;;;;3.95;1.17;;;;;;;17.24;63.54;99753.69;4900216;29;20459;-87
2021/09/20 07:38:48;;;;;;;1.50;1.25;;;;;;;17.42;63.21;99758.38;4899140;29;20421;-87
2021/09/20 07:41:15;;;;;;;1.35;1.20;;;;;;;17.59;62.68;99760.38;4899712;29;20048;-86
2021/09/20 07:43:45;;;;;;;4.28;1.48;;;;;;;17.54;62.53;99760.78;4899256;29;20104;-85
2021/09/20 07:46:19;;;;;;;1.27;1.15;;;;;;;17.52;63.02;99762.72;4899659;29;20045;-86
2021/09/20 07:48:46;;;;;;;11.20;1.10;;;;;;;17.51;62.33;99757.56;4899319;29;20052;-87
2021/09/20 07:51:13;;;;;;;4.80;1.02;;;;;;;17.76;62.36;99753.66;4899785;29;20043;-86
2021/09/20 07:53:40;;;;;;;3.30;0.88;;;;;;;17.65;62.51;99757.22;4899409;29;20049;-87
2021/09/20 07:56:07;;;;;;;3.83;1.08;;;;;;;17.77;62.38;99760.59;4899594;29;20042;-86
2021/09/20 07:58:34;;;;;;;4.22;0.82;;;;;;;17.72;62.33;99762.78;4900045;29;20049;-88
2021/09/20 08:01:01;;;;;;;4.22;1.05;;;;;;;17.88;61.83;99772.84;4899158;29;20119;-88
2021/09/20 08:03:28;;;;;;;4.18;0.98;;;;;;;18.02;61.61;99769.84;4899716;29;20131;-86
2021/09/20 08:05:55;;;;;;;0.90;0.73;;;;;;;18.12;60.87;99773.31;4899314;29;20400;-87
2021/09/20 08:08:23;;;;;;;1.25;0.85;;;;;;;18.08;61.12;99779.84;4899222;29;20049;-87
2021/09/20 08:10:50;;;;;;;1.42;0.82;;;;;;;17.93;61.05;99778.56;4899472;29;20045;-87
2021/09/20 08:13:18;;;;;;;2.05;1.00;;;;;;;17.79;61.71;99783.25;4898966;29;20044;-86
2021/09/20 08:15:46;;;;;;;3.60;0.90;;;;;;;18.09;61.84;99783.31;4898943;29;20100;-86
2021/09/20 08:18:13;;;;;;;5.55;1.60;;;;;;;18.18;60.78;99793.88;4899380;29;20406;-87
2021/09/20 08:20:42;;;;;;;2.00;0.90;;;;;;;18.10;61.16;99798.97;4899193;29;20085;-88
2021/09/20 08:23:10;;;;;;;0.93;0.88;;;;;;;18.24;60.81;99800.41;4898423;29;20532;-88
2021/09/20 08:25:37;;;;;;;3.05;1.60;;;;;;;18.21;60.61;99801.50;4897607;29;20052;-88
2021/09/20 08:28:04;;;;;;;3.80;1.67;;;;;;;18.32;60.50;99793.50;4898595;29;20072;-89
2021/09/20 08:30:31;;;;;;;1.40;0.90;;;;;;;18.40;59.46;99797.25;4898792;29;20456;-85
2021/09/20 08:32:58;;;;;;;1.77;1.00;;;;;;;18.44;58.83;99809.19;4898349;29;20081;-86
2021/09/20 08:35:25;;;;;;;2.33;1.17;;;;;;;18.61;58.23;99808.50;4898839;29;20041;-87
2021/09/20 08:37:52;;;;;;;1.63;1.05;;;;;;;18.51;58.03;99813.78;4898597;29;20097;-86
2021/09/20 08:40:19;;;;;;;1.77;0.77;;;;;;;18.71;57.49;99814.66;4898493;29;20433;-86
2021/09/20 08:42:49;;;;;;;1.20;0.98;;;;;;;18.61;56.86;99812.97;4898294;29;20456;-89
2021/09/20 08:45:19;;;;;;;1.35;0.80;;;;;;;18.74;56.03;99817.00;4898682;29;20049;-89
2021/09/20 08:47:50;;;;;;;3.70;0.93;;;;;;;18.72;56.28;99811.03;4898320;29;20037;-87
2021/09/20 08:50:25;;;;;;;4.53;1.00;;;;;;;18.61;56.51;99816.41;4898398;29;20109;-88
2021/09/20 08:52:52;;;;;;;6.55;0.90;;;;;;;18.81;55.99;99819.94;4898478;29;20045;-89
2021/09/20 08:55:20;;;;;;;0.70;0.70;;;;;;;18.98;55.13;99821.88;4898038;29;20091;-89
2021/09/20 08:57:48;;;;;;;2.15;1.25;;;;;;;18.81;55.53;99825.22;4898593;29;20092;-89
2021/09/20 09:00:15;;;;;;;0.75;0.75;;;;;;;18.88;54.52;99826.31;4897917;29;20055;-85
2021/09/20 09:02:42;;;;;;;1.58;1.20;;;;;;;19.02;54.08;99820.63;4897331;29;20127;-86
2021/09/20 09:05:19;;;;;;;3.20;0.88;;;;;;;19.05;53.18;99819.47;4898199;29;20132;-87
2021/09/20 09:07:56;;;;;;;1.10;1.00;;;;;;;19.12;53.17;99817.94;4898218;29;20049;-88
2021/09/20 09:10:25;;;;;;;1.52;1.05;;;;;;;19.25;51.72;99815.00;4898250;29;20049;-87
2021/09/20 09:12:53;;;;;;;1.20;0.70;;;;;;;19.18;51.54;99816.56;4898164;29;20041;-88
2021/09/20 09:15:23;;;;;;;0.82;0.80;;;;;;;19.21;51.05;99810.97;4897160;29;20045;-87
2021/09/20 09:17:53;;;;;;;3.10;0.80;;;;;;;19.47;50.28;99816.47;4898043;29;20227;-87
2021/09/20 09:20:27;;;;;;;2.63;1.00;;;;;;;19.37;50.49;99819.97;4898394;29;20147;-88
2021/09/20 09:23:12;;;;;;;2.00;1.30;;;;;;;19.44;50.55;99830.81;4897974;29;20041;-87
2021/09/20 09:25:46;;;;;;;;;;;;;;;19.44;49.80;99822.03;4898381;29;20052;-86
2021/09/20 09:28:20;;;;;;;4.37;0.77;;;;;;;19.38;50.37;99824.28;4898087;29;19927;-86
2021/09/20 09:30:55;;;;;;;1.85;1.10;;;;;;;19.41;50.80;99827.63;4897973;29;20764;-87
2021/09/20 09:33:36;;;;;;;1.10;0.90;;;;;;;19.61;50.21;99829.28;4897514;29;20083;-87
2021/09/20 09:36:07;;;;;;;1.63;0.90;;;;;;;19.72;50.47;99825.59;4897856;29;20055;-87
2021/09/20 09:38:37;;;;;;;5.38;1.05;;;;;;;19.73;50.55;99820.16;4897634;29;20069;-87
2021/09/20 09:41:05;;;;;;;3.03;1.25;;;;;;;19.67;50.01;99833.97;4897998;29;20040;-88
2021/09/20 09:43:42;;;;;;;2.17;1.38;;;;;;;19.93;49.63;99834.16;4897634;29;20049;-87
2021/09/20 09:46:22;;;;;;;1.40;1.00;;;;;;;19.91;50.04;99828.16;4897926;29;20060;-87
2021/09/20 09:48:51;;;;;;;11.95;2.38;;;;;;;20.00;49.99;99826.44;4897406;29;20044;-88
2021/09/20 09:51:18;;;;;;;2.55;1.00;;;;;;;20.04;49.72;99823.38;4897660;29;20045;-87
2021/09/20 09:53:47;;;;;;;1.42;1.15;;;;;;;20.20;48.32;99835.13;4897716;29;20055;-88
2021/09/20 09:56:14;;;;;;;5.03;1.00;;;;;;;20.36;48.01;99838.78;4897678;29;20062;-87
2021/09/20 09:59:03;;;;;;;1.30;1.00;;;;;;;20.62;47.59;99838.91;4897306;29;20409;-87
2021/09/20 10:01:40;;;;;;;6.55;0.80;;;;;;;20.39;48.01;99835.81;4897698;29;20097;-87
2021/09/20 10:04:20;;;;;;;4.50;1.20;;;;;;;20.42;48.39;99832.03;4897721;29;20056;-87
2021/09/20 10:06:48;;;;;;;1.92;1.00;;;;;;;20.50;48.24;99831.31;4897146;29;20092;-87
2021/09/20 10:09:18;;;;;;;1.30;1.10;;;;;;;20.65;46.93;99835.94;4897483;29;20104;-87
2021/09/20 10:11:47;;;;;;;1.30;0.90;;;;;;;21.00;46.36;99828.13;4897689;29;20044;-87
2021/09/20 10:14:15;;;;;;;1.88;1.25;;;;;;;21.07;46.01;99818.56;4897413;29;20552;-88
2021/09/20 10:16:46;;;;;;;1.15;1.02;;;;;;;21.30;46.16;99829.53;4897246;29;20125;-87
2021/09/20 10:19:13;;;;;;;1.38;1.02;;;;;;;21.39;46.00;99820.66;4896688;29;20049;-87
2021/09/20 10:21:40;;;;;;;4.38;0.95;;;;;;;20.95;46.09;99830.41;4897449;29;20052;-87
2021/09/20 10:24:07;;;;;;;1.67;0.98;;;;;;;21.00;45.87;99822.84;4897963;29;20488;-86
2021/09/20 10:26:34;;;;;;;4.25;0.90;;;;;;;21.11;45.79;99820.75;4897068;29;20056;-87
2021/09/20 10:29:05;;;;;;;4.57;1.10;;;;;;;21.17;47.01;99827.25;4897431;29;20491;-89
2021/09/20 10:31:34;;;;;;;3.20;0.85;;;;;;;21.40;45.58;99809.03;4896770;29;20045;-87
2021/09/20 10:34:19;;;;;;;1.45;1.20;;;;;;;21.38;45.45;99817.16;4896902;29;20112;-87
2021/09/20 10:36:48;;;;;;;3.28;1.20;;;;;;;21.21;45.39;99823.31;4896874;29;20385;-86
2021/09/20 10:39:15;;;;;;;1.33;1.08;;;;;;;21.42;44.90;99823.81;4896903;29;20068;-88
2021/09/20 10:41:42;;;;;;;2.05;0.80;;;;;;;21.45;44.79;99828.78;4896621;29;20045;-86
2021/09/20 10:44:11;;;;;;;1.77;1.33;;;;;;;21.30;44.55;99825.06;4896889;29;20052;-86
2021/09/20 10:46:40;;;;;;;0.90;0.90;;;;;;;21.24;44.05;99827.47;4897264;29;20092;-87
2021/09/20 10:49:21;;;;;;;2.33;0.98;;;;;;;21.65;44.21;99818.81;4898295;29;20184;-86
2021/09/20 10:52:05;;;;;;;1.30;0.70;;;;;;;21.62;43.30;99824.41;4900388;29;20052;-87
2021/09/20 10:54:32;;;;;;;4.10;1.00;;;;;;;21.39;43.01;99824.13;4900120;29;20041;-87
2021/09/20 10:57:12;;;;;;;1.85;1.42;;;;;;;21.69;42.56;99811.38;4900052;29;20060;-87
2021/09/20 10:59:41;;;;;;;2.78;1.33;;;;;;;21.68;43.03;99817.66;4898685;29;20045;-87
2021/09/20 11:02:16;;;;;;;1.17;0.95;;;;;;;22.18;42.07;99808.94;4900285;29;20041;-87
2021/09/20 11:04:44;;;;;;;0.90;0.60;;;;;;;21.85;42.10;99821.22;4898261;29;20127;-88
2021/09/20 11:07:18;;;;;;;3.75;0.95;;;;;;;21.70;42.72;99813.03;4899891;29;20056;-87
2021/09/20 11:10:10;;;;;;;4.47;1.00;;;;;;;22.40;41.55;99808.31;4899451;29;20052;-86
2021/09/20 11:12:58;;;;;;;6.38;1.50;;;;;;;22.01;43.21;99807.19;4899753;29;20040;-86
2021/09/20 11:15:26;;;;;;;1.27;0.80;;;;;;;21.87;43.05;99812.09;4899369;29;20076;-87
2021/09/20 11:17:53;;;;;;;1.50;0.95;;;;;;;22.35;41.97;99820.41;4899607;29;20044;-87
2021/09/20 11:20:30;;;;;;;3.28;1.08;;;;;;;22.05;42.00;99813.81;4899414;29;20518;-87
2021/09/20 11:23:19;;;;;;;1.45;1.02;;;;;;;22.07;41.89;99819.81;4899453;29;20783;-88
2021/09/20 11:26:06;;;;;;;1.75;0.80;;;;;;;21.86;41.58;99805.13;4899217;29;20077;-89
2021/09/20 11:28:36;;;;;;;1.60;1.00;;;;;;;22.38;40.51;99812.97;4899967;29;20080;-89
2021/09/20 11:31:04;;;;;;;1.38;0.80;;;;;;;22.16;40.59;99800.31;4899735;29;20044;-89
2021/09/20 11:33:42;;;;;;;0.73;0.73;;;;;;;22.42;39.82;99801.00;4899203;29;20068;-87
2021/09/20 11:36:34;;;;;;;3.40;0.75;;;;;;;22.54;39.37;99798.88;4899462;29;20045;-87
2021/09/20 11:39:27;;;;;;;1.30;0.80;;;;;;;22.37;39.70;99798.03;4899968;29;20053;-89
2021/09/20 11:42:00;;;;;;;5.57;0.77;;;;;;;22.42;40.87;99795.69;4896656;29;20488;-89